Okabena, Minnesota
Current Conditions -  °F | °C
As of 4:35 AM on Wednesday 22 Oct 2014 (Local Time) from KOTG Reporting Station
Overcast Overcast  
Wind Chill:   Ceiling: 4900
Heat Index:   Visibility: 10mi
Dew Point:   Wind: 18mph
Humidity: 71%   Direction: 160°SSE
Pressure: 30.08"   Gusts: 23mph
Location:  43.74°N, 95.32°W
Report Text: KOTG 220935Z AUTO 16016G20KT 10SM OVC049 09/04 A3008 RMK AO1
Loading
Personal Weather Stations






























Interactive Weather Map
Tropical Storm Tracking
New forecast layout! Learn more

10-Day Weather Forecast

Advertisements
Track Severe Weather on mobile